Time;durP1;ratioP1;P1;durP2;ratioP2;P2;SDS_P1;SDS_P2;PMS_P1;PMS_P2;Temp;Humidity;BMP_temperature;BMP_pressure;BME280_temperature;BME280_humidity;BME280_pressure;Samples;Min_cycle;Max_cycle;Signal;HPM_P1;HPM_P2
2021/11/29 00:00:32;;;;;;;20.12;13.08;;;22.30;76.00;;;;;;1855807;75;21662;-82
2021/11/29 00:03:07;;;;;;;18.75;12.68;;;22.30;76.90;;;;;;1865676;76;21171;-82
2021/11/29 00:05:38;;;;;;;20.05;12.37;;;22.20;76.10;;;;;;1868861;75;21078;-82
2021/11/29 00:08:14;;;;;;;21.68;13.05;;;22.20;76.00;;;;;;1863602;76;21219;-82
2021/11/29 00:10:49;;;;;;;22.77;12.37;;;22.30;76.00;;;;;;1870444;75;21132;-82
2021/11/29 00:13:22;;;;;;;21.95;11.97;;;22.30;76.00;;;;;;1874098;75;21068;-83
2021/11/29 00:16:00;;;;;;;22.07;12.68;;;22.30;76.00;;;;;;1853692;75;21207;-83
2021/11/29 00:18:28;;;;;;;21.52;13.78;;;22.30;76.90;;;;;;1869046;75;21120;-81
2021/11/29 00:21:05;;;;;;;22.90;14.33;;;22.40;75.50;;;;;;1894460;75;21080;-83
2021/11/29 00:23:40;;;;;;;16.45;12.88;;;22.40;75.30;;;;;;1850094;75;21169;-83
2021/11/29 00:26:08;;;;;;;18.42;12.23;;;22.40;75.50;;;;;;1889279;75;21136;-81
2021/11/29 00:28:42;;;;;;;19.75;12.30;;;22.40;75.30;;;;;;1870195;75;21137;-70
2021/11/29 00:31:14;;;;;;;19.70;11.95;;;22.50;75.10;;;;;;1824124;76;21147;-71
2021/11/29 00:33:45;;;;;;;20.70;13.58;;;22.50;75.00;;;;;;1851664;76;21170;-71
2021/11/29 00:36:16;;;;;;;21.93;12.53;;;22.50;74.90;;;;;;1867376;76;21192;-72
2021/11/29 00:38:47;;;;;;;841.68;114.32;;;22.50;74.90;;;;;;1866621;75;21105;-71
2021/11/29 00:41:17;;;;;;;26.73;14.58;;;22.50;75.30;;;;;;1862400;75;21088;-70
2021/11/29 00:43:48;;;;;;;17.95;12.80;;;22.60;75.00;;;;;;1851705;76;21159;-70
2021/11/29 00:46:19;;;;;;;19.98;12.65;;;22.70;74.70;;;;;;1886853;74;21123;-71
2021/11/29 00:48:50;;;;;;;19.32;11.93;;;22.70;74.50;;;;;;1881134;75;21812;-71
2021/11/29 00:51:21;;;;;;;20.15;13.38;;;22.70;74.40;;;;;;1873657;75;21634;-73
2021/11/29 00:53:51;;;;;;;21.25;13.20;;;22.70;74.20;;;;;;1844606;76;21092;-71
2021/11/29 00:56:22;;;;;;;20.50;13.03;;;22.80;74.30;;;;;;1833009;76;21159;-71
2021/11/29 00:58:53;;;;;;;18.60;12.80;;;22.80;74.30;;;;;;1873118;74;21135;-71
2021/11/29 01:01:24;;;;;;;19.42;12.85;;;22.90;74.40;;;;;;1865852;75;21151;-70
2021/11/29 01:03:55;;;;;;;19.92;12.70;;;22.90;74.70;;;;;;1845230;76;21124;-70
2021/11/29 01:06:26;;;;;;;18.27;11.93;;;22.90;74.20;;;;;;1870622;75;21119;-71
2021/11/29 01:08:57;;;;;;;23.22;12.30;;;23.00;73.90;;;;;;1866872;75;21183;-70
2021/11/29 01:11:28;;;;;;;16.37;11.80;;;23.00;73.70;;;;;;1830929;76;21666;-70
2021/11/29 01:14:00;;;;;;;15.55;11.48;;;23.10;73.90;;;;;;1839017;77;21187;-70
2021/11/29 01:16:31;;;;;;;15.48;11.50;;;23.10;73.50;;;;;;1881267;75;21163;-70
2021/11/29 01:19:03;;;;;;;17.82;12.78;;;23.20;73.20;;;;;;1851032;76;21123;-70
2021/11/29 01:21:33;;;;;;;20.17;11.83;;;23.20;73.10;;;;;;1833414;78;21640;-70
2021/11/29 01:24:04;;;;;;;17.35;11.63;;;23.30;73.10;;;;;;1870718;75;22098;-71
2021/11/29 01:26:35;;;;;;;20.12;12.65;;;23.20;73.10;;;;;;1840256;77;21127;-69
2021/11/29 01:29:06;;;;;;;17.90;12.55;;;23.30;73.00;;;;;;1873839;76;21170;-71
2021/11/29 01:31:37;;;;;;;17.87;12.23;;;23.40;72.80;;;;;;1873451;75;21456;-71
2021/11/29 01:34:08;;;;;;;16.42;11.60;;;23.40;72.20;;;;;;1851015;76;21139;-72
2021/11/29 01:36:40;;;;;;;18.60;11.73;;;23.50;72.50;;;;;;1837189;76;21135;-71
2021/11/29 01:39:12;;;;;;;19.82;11.97;;;23.50;72.00;;;;;;1855521;76;21176;-71
2021/11/29 01:41:49;;;;;;;18.45;11.65;;;23.60;71.50;;;;;;1874356;75;21624;-71
2021/11/29 01:44:20;;;;;;;16.02;10.78;;;23.70;71.40;;;;;;1862744;76;21687;-71
2021/11/29 01:46:51;;;;;;;16.90;11.40;;;23.70;71.10;;;;;;1877499;75;21109;-70
2021/11/29 01:49:23;;;;;;;16.37;11.18;;;23.80;71.00;;;;;;1868978;76;21183;-70
2021/11/29 01:51:54;;;;;;;17.62;11.22;;;23.90;70.70;;;;;;1861344;76;21179;-72
2021/11/29 01:54:29;;;;;;;15.60;11.40;;;23.90;70.50;;;;;;1878635;75;21072;-71
2021/11/29 01:57:00;;;;;;;17.77;11.53;;;24.00;70.30;;;;;;1878788;75;21204;-70
2021/11/29 01:59:31;;;;;;;19.90;11.65;;;24.10;69.90;;;;;;1855063;76;21612;-71
2021/11/29 02:02:03;;;;;;;20.48;11.55;;;24.10;69.50;;;;;;1888911;75;21836;-72
2021/11/29 02:04:37;;;;;;;21.20;12.10;;;24.20;69.30;;;;;;1884589;75;21683;-71
2021/11/29 02:07:07;;;;;;;20.45;10.70;;;24.20;69.10;;;;;;1850706;76;21160;-72
2021/11/29 02:09:38;;;;;;;22.02;11.55;;;24.30;69.30;;;;;;1850523;76;21183;-71
2021/11/29 02:12:10;;;;;;;17.27;11.22;;;24.30;68.90;;;;;;1859216;76;21746;-71
2021/11/29 02:14:46;;;;;;;20.30;11.12;;;24.40;68.70;;;;;;1844479;76;21144;-70
2021/11/29 02:17:17;;;;;;;21.00;12.45;;;24.40;68.60;;;;;;1861318;76;21200;-70
2021/11/29 02:19:48;;;;;;;20.02;12.03;;;24.40;68.30;;;;;;1859179;76;21195;-71
2021/11/29 02:22:20;;;;;;;18.55;12.55;;;24.50;68.70;;;;;;1858571;76;21090;-71
2021/11/29 02:24:51;;;;;;;19.12;11.80;;;24.50;68.40;;;;;;1868986;75;21159;-70
2021/11/29 02:27:21;;;;;;;20.40;12.03;;;24.50;68.60;;;;;;1857303;76;22036;-71
2021/11/29 02:29:54;;;;;;;16.45;11.38;;;24.50;69.00;;;;;;1863652;76;21178;-71
2021/11/29 02:32:28;;;;;;;17.73;10.70;;;24.50;69.10;;;;;;1826120;77;21148;-72
2021/11/29 02:35:01;;;;;;;16.82;10.63;;;24.60;68.70;;;;;;1901684;74;21081;-72
2021/11/29 02:37:33;;;;;;;18.35;10.93;;;24.60;68.80;;;;;;1812351;77;21285;-72
2021/11/29 02:40:05;;;;;;;19.35;11.68;;;24.60;68.70;;;;;;1897970;74;21163;-72
2021/11/29 02:42:36;;;;;;;18.77;11.00;;;24.60;68.60;;;;;;1846336;77;21174;-72
2021/11/29 02:45:07;;;;;;;20.15;10.35;;;24.70;68.60;;;;;;1847921;76;21124;-72
2021/11/29 02:47:38;;;;;;;14.78;9.75;;;24.70;69.00;;;;;;1888246;74;21134;-71
2021/11/29 02:50:08;;;;;;;17.70;10.58;;;24.80;68.90;;;;;;1856009;76;21143;-72
2021/11/29 02:52:40;;;;;;;17.48;9.58;;;24.80;68.60;;;;;;1856661;76;21159;-72
2021/11/29 02:55:12;;;;;;;12.90;7.92;;;24.90;68.10;;;;;;1848200;76;21150;-72
2021/11/29 02:57:43;;;;;;;14.78;8.48;;;25.00;66.10;;;;;;1867844;76;21769;-72
2021/11/29 03:00:14;;;;;;;11.45;7.40;;;25.00;65.70;;;;;;1849028;76;21194;-72
2021/11/29 03:02:45;;;;;;;13.68;8.63;;;25.10;65.40;;;;;;1892924;74;21178;-72
2021/11/29 03:05:16;;;;;;;12.23;8.28;;;25.10;65.30;;;;;;1853366;76;21119;-71
2021/11/29 03:07:48;;;;;;;12.05;8.40;;;25.20;65.20;;;;;;1838038;76;21218;-72
2021/11/29 03:10:19;;;;;;;16.27;8.55;;;25.30;65.00;;;;;;1894414;74;21129;-72
2021/11/29 03:12:49;;;;;;;14.33;9.10;;;25.30;64.50;;;;;;1843912;77;21151;-71
2021/11/29 03:15:20;;;;;;;15.43;8.75;;;25.40;64.60;;;;;;1897943;74;21132;-71
2021/11/29 03:17:51;;;;;;;11.12;7.65;;;25.50;64.40;;;;;;1848384;76;21088;-71
2021/11/29 03:20:22;;;;;;;12.73;8.28;;;25.60;64.20;;;;;;1848283;76;21666;-71
2021/11/29 03:22:53;;;;;;;14.65;7.60;;;25.70;63.40;;;;;;1904096;74;21162;-72
2021/11/29 03:25:24;;;;;;;17.40;7.22;;;25.90;63.60;;;;;;1859087;76;21567;-72
2021/11/29 03:27:56;;;;;;;12.05;8.00;;;26.00;62.90;;;;;;1902758;74;21122;-72
2021/11/29 03:30:26;;;;;;;11.12;7.83;;;26.10;62.30;;;;;;1852599;76;21658;-72
2021/11/29 03:32:57;;;;;;;9.38;7.08;;;26.10;62.10;;;;;;1885002;76;21053;-71
2021/11/29 03:35:28;;;;;;;26.93;8.55;;;26.20;61.80;;;;;;1860292;76;21154;-72
2021/11/29 03:37:59;;;;;;;12.03;7.40;;;26.30;61.50;;;;;;1859955;76;21089;-72
2021/11/29 03:40:32;;;;;;;10.10;6.22;;;26.40;61.30;;;;;;1880384;76;21169;-70
2021/11/29 03:43:02;;;;;;;10.78;7.83;;;26.50;60.60;;;;;;1885123;76;21169;-71
2021/11/29 03:45:33;;;;;;;12.43;6.83;;;26.60;61.00;;;;;;1877138;74;21119;-70
2021/11/29 03:48:05;;;;;;;13.62;7.30;;;26.70;60.20;;;;;;1853924;76;21712;-71
2021/11/29 03:50:36;;;;;;;13.88;7.20;;;26.80;60.60;;;;;;1848375;76;21127;-71
2021/11/29 03:53:06;;;;;;;10.88;7.33;;;26.90;59.70;;;;;;1890730;74;21071;-72
2021/11/29 03:55:37;;;;;;;11.22;6.90;;;26.90;59.70;;;;;;1891058;74;21148;-71
2021/11/29 03:58:08;;;;;;;12.47;6.87;;;27.10;59.60;;;;;;1856358;76;21117;-71
2021/11/29 04:00:39;;;;;;;10.35;7.30;;;27.20;59.10;;;;;;1864951;75;21735;-69
2021/11/29 04:03:10;;;;;;;9.70;7.08;;;27.30;58.90;;;;;;1825982;77;21183;-70
2021/11/29 04:05:42;;;;;;;10.35;7.17;;;27.30;59.70;;;;;;1874496;76;21147;-70
2021/11/29 04:08:12;;;;;;;15.45;7.65;;;27.40;58.80;;;;;;1876876;76;21193;-70
2021/11/29 04:10:43;;;;;;;12.18;6.95;;;27.60;58.60;;;;;;1838944;76;21200;-70
2021/11/29 04:13:14;;;;;;;10.80;7.28;;;27.70;58.90;;;;;;1855038;76;21169;-70
2021/11/29 04:15:48;;;;;;;13.48;7.37;;;27.90;58.30;;;;;;1898576;74;21587;-69
2021/11/29 04:18:20;;;;;;;16.02;7.20;;;27.90;57.60;;;;;;1887671;75;21205;-70
2021/11/29 04:20:51;;;;;;;12.10;7.80;;;28.00;57.70;;;;;;1891574;74;21472;-70
2021/11/29 04:23:22;;;;;;;11.05;7.67;;;28.00;57.60;;;;;;1895127;74;22620;-70
2021/11/29 04:26:14;;;;;;;13.08;7.72;;;28.10;57.10;;;;;;1855553;76;21225;-71
2021/11/29 04:28:45;;;;;;;11.78;7.95;;;28.20;57.00;;;;;;1925572;73;21673;-71
2021/11/29 04:31:16;;;;;;;15.28;8.60;;;28.30;57.10;;;;;;1930993;73;21178;-71
2021/11/29 04:33:47;;;;;;;12.18;7.65;;;28.40;56.60;;;;;;1928179;73;21590;-70
2021/11/29 04:36:18;;;;;;;11.75;8.25;;;28.40;56.70;;;;;;1932582;73;21154;-70
2021/11/29 04:38:49;;;;;;;12.78;8.15;;;28.50;57.10;;;;;;1932948;73;21102;-70
2021/11/29 04:41:19;;;;;;;14.40;8.18;;;28.60;56.80;;;;;;1937672;73;21115;-71
2021/11/29 04:43:50;;;;;;;10.28;8.35;;;28.60;56.80;;;;;;1944483;73;21237;-70
2021/11/29 04:46:21;;;;;;;10.72;7.97;;;28.70;56.70;;;;;;1922122;73;21157;-70
2021/11/29 04:48:51;;;;;;;10.63;7.97;;;28.70;56.30;;;;;;1916811;73;21127;-71
2021/11/29 04:51:22;;;;;;;9.98;7.65;;;28.70;56.30;;;;;;1923931;73;21212;-70
2021/11/29 04:53:53;;;;;;;10.75;7.17;;;28.80;56.70;;;;;;1924031;73;21115;-71
2021/11/29 04:56:24;;;;;;;12.85;7.75;;;28.90;56.00;;;;;;1902586;73;21099;-71
2021/11/29 04:58:55;;;;;;;10.65;7.42;;;28.90;56.10;;;;;;1907239;73;21229;-72
2021/11/29 05:01:26;;;;;;;14.50;7.97;;;29.00;56.00;;;;;;1945259;73;21165;-69
2021/11/29 05:03:57;;;;;;;9.80;7.30;;;29.00;56.30;;;;;;1940194;73;21208;-69
2021/11/29 05:06:28;;;;;;;13.43;7.70;;;29.10;55.70;;;;;;1918535;73;21135;-70
2021/11/29 05:08:59;;;;;;;14.93;7.78;;;29.20;56.20;;;;;;1937081;73;21073;-70
2021/11/29 05:11:29;;;;;;;10.20;6.83;;;29.30;56.10;;;;;;1946885;73;21111;-69
2021/11/29 05:14:00;;;;;;;14.63;7.45;;;29.30;55.50;;;;;;1931912;73;21591;-69
2021/11/29 05:16:32;;;;;;;12.58;7.60;;;29.40;55.80;;;;;;1935518;73;21146;-70
2021/11/29 05:19:03;;;;;;;11.83;6.87;;;29.50;55.70;;;;;;1945493;73;21619;-70
2021/11/29 05:21:35;;;;;;;11.25;7.47;;;29.50;55.40;;;;;;1950257;73;21692;-70
2021/11/29 05:24:06;;;;;;;14.05;7.20;;;29.60;55.00;;;;;;1923398;73;21225;-70
2021/11/29 05:26:37;;;;;;;11.30;6.78;;;29.60;55.20;;;;;;1923940;73;21185;-70
2021/11/29 05:29:08;;;;;;;13.85;7.75;;;29.50;55.70;;;;;;1944609;73;21128;-70
2021/11/29 05:31:38;;;;;;;9.88;6.90;;;29.50;55.20;;;;;;1920753;73;21137;-71
2021/11/29 05:34:09;;;;;;;12.10;6.25;;;29.60;55.20;;;;;;1953296;73;21693;-69
2021/11/29 05:36:40;;;;;;;15.85;7.75;;;29.60;55.00;;;;;;1928785;73;21170;-69
2021/11/29 05:39:14;;;;;;;10.32;6.95;;;29.60;55.30;;;;;;1923678;73;21173;-70
2021/11/29 05:41:45;;;;;;;13.03;7.37;;;29.60;54.70;;;;;;1936632;73;21249;-70
2021/11/29 05:44:17;;;;;;;10.35;6.58;;;29.60;55.30;;;;;;1931587;73;21044;-71
2021/11/29 05:46:48;;;;;;;9.98;6.33;;;29.70;55.20;;;;;;1908073;73;21709;-70
2021/11/29 05:49:18;;;;;;;9.88;6.70;;;29.80;54.50;;;;;;1901813;75;21607;-70
2021/11/29 05:51:49;;;;;;;9.43;6.97;;;29.80;55.20;;;;;;1928687;73;21293;-70
2021/11/29 05:54:20;;;;;;;9.83;6.92;;;29.80;55.00;;;;;;1937180;73;21193;-70
2021/11/29 05:56:51;;;;;;;10.58;6.97;;;29.80;54.50;;;;;;1918128;73;21119;-71
2021/11/29 05:59:24;;;;;;;11.15;6.87;;;29.80;54.30;;;;;;1930739;73;21104;-70
2021/11/29 06:01:55;;;;;;;9.58;6.53;;;29.80;54.60;;;;;;1915050;73;21644;-72
2021/11/29 06:04:26;;;;;;;10.98;7.17;;;29.90;54.30;;;;;;1908580;73;21166;-70
2021/11/29 06:06:57;;;;;;;11.15;7.00;;;29.90;54.80;;;;;;1906305;74;21257;-70
2021/11/29 06:09:28;;;;;;;11.50;6.95;;;29.90;54.30;;;;;;1897199;74;21229;-70
2021/11/29 06:11:59;;;;;;;10.38;7.30;;;29.90;54.40;;;;;;1909822;73;21131;-69
2021/11/29 06:14:31;;;;;;;11.57;7.78;;;29.90;54.60;;;;;;1918166;74;21048;-69
2021/11/29 06:17:02;;;;;;;46.63;10.10;;;29.90;54.30;;;;;;1912096;73;21197;-72
2021/11/29 06:19:33;;;;;;;10.72;6.42;;;30.00;54.70;;;;;;1899751;74;21134;-71
2021/11/29 06:22:03;;;;;;;11.55;8.65;;;30.00;54.40;;;;;;1904838;74;21166;-71
2021/11/29 06:24:35;;;;;;;8.60;6.47;;;30.00;54.10;;;;;;1913787;73;21096;-71
2021/11/29 06:27:06;;;;;;;12.80;7.00;;;30.00;54.10;;;;;;1924464;73;21087;-70
2021/11/29 06:29:36;;;;;;;13.70;7.40;;;30.10;53.90;;;;;;1907231;74;21126;-70
2021/11/29 06:32:07;;;;;;;11.25;7.17;;;30.10;54.30;;;;;;1924607;73;21122;-70
2021/11/29 06:34:39;;;;;;;9.03;6.47;;;30.10;53.80;;;;;;1899602;75;21129;-71
2021/11/29 06:37:11;;;;;;;12.18;6.12;;;30.20;53.80;;;;;;1917604;74;21103;-70
2021/11/29 06:39:42;;;;;;;7.08;5.40;;;30.20;53.70;;;;;;1878921;75;21146;-72
2021/11/29 06:42:13;;;;;;;8.20;6.35;;;30.20;53.80;;;;;;1915275;75;21072;-71
2021/11/29 06:44:43;;;;;;;10.43;6.70;;;30.20;53.60;;;;;;1902627;75;21131;-71
2021/11/29 06:47:14;;;;;;;9.60;7.42;;;30.20;53.70;;;;;;1899398;74;21175;-71
2021/11/29 06:49:45;;;;;;;9.68;6.37;;;30.30;54.20;;;;;;1906002;75;21123;-70
2021/11/29 06:52:16;;;;;;;14.33;6.90;;;30.30;53.20;;;;;;1927359;73;21668;-69
2021/11/29 06:54:50;;;;;;;9.30;6.22;;;30.30;53.50;;;;;;1866447;75;21213;-70
2021/11/29 06:57:20;;;;;;;9.93;6.80;;;30.40;53.00;;;;;;1952499;73;21096;-69
2021/11/29 06:59:51;;;;;;;10.25;6.62;;;30.30;52.90;;;;;;1880739;75;21123;-70
2021/11/29 07:02:27;;;;;;;8.25;6.20;;;30.30;52.90;;;;;;1891562;75;21205;-71
2021/11/29 07:04:56;;;;;;;8.98;6.60;;;30.30;53.10;;;;;;1946980;73;21111;-71
2021/11/29 07:07:27;;;;;;;11.20;5.92;;;30.20;53.90;;;;;;1904141;75;21159;-71
2021/11/29 07:09:58;;;;;;;8.63;6.03;;;30.20;53.40;;;;;;1909094;74;21158;-71
2021/11/29 07:12:28;;;;;;;7.83;5.92;;;30.20;53.40;;;;;;1907794;75;21182;-71
2021/11/29 07:14:59;;;;;;;11.90;6.30;;;30.10;53.50;;;;;;1903830;75;21142;-71
2021/11/29 07:17:30;;;;;;;9.05;6.40;;;30.10;53.50;;;;;;1896181;75;21571;-71
2021/11/29 07:20:02;;;;;;;8.10;6.67;;;30.10;53.30;;;;;;1898431;75;21134;-71
2021/11/29 07:22:34;;;;;;;8.20;6.53;;;30.10;53.60;;;;;;1871594;74;21436;-71
2021/11/29 07:25:06;;;;;;;7.40;5.65;;;30.10;53.60;;;;;;1924374;73;21135;-71
2021/11/29 07:27:37;;;;;;;8.40;6.22;;;30.10;53.70;;;;;;1887796;74;21045;-71
2021/11/29 07:30:10;;;;;;;9.50;6.03;;;30.10;53.20;;;;;;1880819;74;21104;-71
2021/11/29 07:32:41;;;;;;;7.25;5.33;;;30.20;52.90;;;;;;1878261;75;21075;-71
2021/11/29 07:35:13;;;;;;;8.85;5.78;;;30.20;53.00;;;;;;1888784;75;21571;-70
2021/11/29 07:37:44;;;;;;;6.87;5.03;;;30.10;52.60;;;;;;1900281;75;21240;-70
2021/11/29 07:40:15;;;;;;;10.40;5.35;;;30.10;52.50;;;;;;1874701;75;21118;-69
2021/11/29 07:42:47;;;;;;;9.00;6.28;;;30.10;52.80;;;;;;1933796;72;21159;-71
2021/11/29 07:45:19;;;;;;;9.10;6.05;;;30.20;52.80;;;;;;1938716;73;21543;-70
2021/11/29 07:47:49;;;;;;;8.65;5.72;;;30.10;53.00;;;;;;1918444;74;21527;-70
2021/11/29 07:50:21;;;;;;;6.67;5.25;;;30.10;52.60;;;;;;1950425;73;21110;-71
2021/11/29 07:52:52;;;;;;;8.00;5.60;;;30.10;52.00;;;;;;1956569;73;21099;-70
2021/11/29 07:55:25;;;;;;;10.15;6.75;;;30.20;51.60;;;;;;1955642;73;21819;-70
2021/11/29 07:57:58;;;;;;;8.28;5.75;;;30.20;51.90;;;;;;1921762;74;21099;-70
2021/11/29 08:00:31;;;;;;;8.83;5.55;;;30.20;51.60;;;;;;1958149;72;21611;-70
2021/11/29 08:03:05;;;;;;;8.35;5.60;;;30.10;52.60;;;;;;1942313;73;21197;-70
2021/11/29 08:05:37;;;;;;;10.68;5.90;;;30.10;51.90;;;;;;1936836;73;21119;-71
2021/11/29 08:08:10;;;;;;;12.37;6.12;;;30.10;52.40;;;;;;1938952;73;21064;-71
2021/11/29 08:10:42;;;;;;;8.98;5.50;;;30.10;52.50;;;;;;1937896;73;21692;-71
2021/11/29 08:13:13;;;;;;;8.33;5.70;;;30.20;51.90;;;;;;1944953;73;21076;-70
2021/11/29 08:15:44;;;;;;;10.10;6.25;;;30.10;52.10;;;;;;1939656;73;21213;-70
2021/11/29 08:18:15;;;;;;;8.40;5.65;;;30.10;52.10;;;;;;1934383;73;21139;-71
2021/11/29 08:20:45;;;;;;;11.63;5.65;;;30.10;51.60;;;;;;1942795;73;21106;-71
2021/11/29 08:23:16;;;;;;;9.90;5.33;;;30.10;51.80;;;;;;1932862;73;21114;-71
2021/11/29 08:25:47;;;;;;;9.63;5.53;;;30.10;51.50;;;;;;1908957;75;21217;-70
2021/11/29 08:28:18;;;;;;;10.28;6.00;;;30.10;51.70;;;;;;1933787;73;21133;-70
2021/11/29 08:30:49;;;;;;;7.75;5.67;;;30.10;52.00;;;;;;1939633;73;21147;-70
2021/11/29 08:33:20;;;;;;;11.93;5.85;;;30.00;52.30;;;;;;1935316;73;21270;-70
2021/11/29 08:35:51;;;;;;;9.33;6.40;;;30.00;52.00;;;;;;1944071;73;21103;-70
2021/11/29 08:38:22;;;;;;;7.47;5.35;;;30.00;51.90;;;;;;1932442;73;21600;-70
2021/11/29 08:40:53;;;;;;;10.20;6.40;;;30.00;51.30;;;;;;1890471;74;21706;-70
2021/11/29 08:43:24;;;;;;;10.98;5.92;;;30.00;51.60;;;;;;1938406;74;21629;-70
2021/11/29 08:45:55;;;;;;;10.98;5.90;;;30.00;51.80;;;;;;1916438;74;21116;-69
2021/11/29 08:48:27;;;;;;;9.70;5.62;;;30.00;51.90;;;;;;1938669;74;21045;-71
2021/11/29 08:50:58;;;;;;;9.03;5.95;;;30.00;52.00;;;;;;1934062;74;21115;-70
2021/11/29 08:53:29;;;;;;;8.28;5.60;;;30.00;52.40;;;;;;1918971;73;21546;-70
2021/11/29 08:56:01;;;;;;;9.48;6.28;;;30.00;52.00;;;;;;1905499;74;21205;-72
2021/11/29 08:58:32;;;;;;;10.30;5.87;;;29.90;52.00;;;;;;1945450;73;21490;-70
2021/11/29 09:01:05;;;;;;;11.63;6.00;;;29.90;51.80;;;;;;1955610;73;21681;-71
2021/11/29 09:03:37;;;;;;;9.10;5.90;;;29.80;52.10;;;;;;1934356;73;21131;-71
2021/11/29 09:06:08;;;;;;;10.48;6.10;;;29.80;52.10;;;;;;1927314;72;21112;-71
2021/11/29 09:08:39;;;;;;;8.90;5.85;;;29.80;52.60;;;;;;1883310;74;21210;-69
2021/11/29 09:11:10;;;;;;;8.03;5.87;;;29.80;52.50;;;;;;1902469;73;21134;-70
2021/11/29 09:13:44;;;;;;;9.88;6.03;;;29.80;52.40;;;;;;1941937;73;21547;-69
2021/11/29 09:16:18;;;;;;;10.70;6.30;;;29.80;52.40;;;;;;1932289;73;21072;-70
2021/11/29 09:18:49;;;;;;;11.28;6.20;;;29.70;52.30;;;;;;1926664;73;21097;-71
2021/11/29 09:21:22;;;;;;;7.90;5.95;;;29.70;52.40;;;;;;1930568;73;21184;-68
2021/11/29 09:23:53;;;;;;;10.32;6.33;;;29.70;52.50;;;;;;1952728;73;21116;-68
2021/11/29 09:26:24;;;;;;;10.15;6.10;;;29.70;52.60;;;;;;1924958;73;21099;-68
2021/11/29 09:28:56;;;;;;;9.70;6.35;;;29.70;52.50;;;;;;1946390;73;22340;-68
2021/11/29 09:31:27;;;;;;;8.78;6.47;;;29.70;52.10;;;;;;1942270;73;21127;-68
2021/11/29 09:33:58;;;;;;;9.20;6.80;;;29.60;52.40;;;;;;1903146;74;21100;-70
2021/11/29 09:36:28;;;;;;;11.57;6.70;;;29.60;52.60;;;;;;1914218;75;21201;-70
2021/11/29 09:38:59;;;;;;;15.58;8.15;;;29.60;52.90;;;;;;1918787;74;21167;-70
2021/11/29 09:41:30;;;;;;;11.10;7.17;;;29.60;53.10;;;;;;1939929;74;21139;-70
2021/11/29 09:44:02;;;;;;;12.05;7.20;;;29.50;53.10;;;;;;1925733;73;21111;-70
2021/11/29 09:46:34;;;;;;;11.38;6.90;;;29.50;53.30;;;;;;1911514;74;21543;-70
2021/11/29 09:49:05;;;;;;;9.73;6.97;;;29.40;53.20;;;;;;1906274;74;21185;-70
2021/11/29 09:51:37;;;;;;;9.45;6.60;;;29.30;53.30;;;;;;1916278;73;21547;-70
2021/11/29 09:54:09;;;;;;;9.70;6.97;;;29.30;53.50;;;;;;1899668;74;21095;-69
2021/11/29 09:56:42;;;;;;;12.33;7.55;;;29.30;53.70;;;;;;1915498;74;21176;-68
2021/11/29 09:59:12;;;;;;;14.40;9.35;;;29.20;54.10;;;;;;1879824;75;21181;-69
2021/11/29 10:01:43;;;;;;;15.43;8.38;;;29.20;54.50;;;;;;1913484;74;21160;-69
2021/11/29 10:04:15;;;;;;;15.75;8.20;;;29.10;55.00;;;;;;1843149;75;21199;-69
2021/11/29 10:06:48;;;;;;;13.78;9.43;;;29.10;55.20;;;;;;1914784;73;21181;-69
2021/11/29 10:09:20;;;;;;;12.95;8.98;;;29.10;55.40;;;;;;1914227;73;21079;-69
2021/11/29 10:11:52;;;;;;;15.05;9.33;;;29.10;55.80;;;;;;1880183;75;21140;-69
2021/11/29 10:14:23;;;;;;;16.67;10.72;;;29.00;55.90;;;;;;1873592;74;21614;-69
2021/11/29 10:16:56;;;;;;;19.27;11.08;;;29.00;56.00;;;;;;1902755;74;21139;-69
2021/11/29 10:19:26;;;;;;;16.97;11.70;;;28.90;56.10;;;;;;1935294;73;21058;-69
2021/11/29 10:21:59;;;;;;;17.25;12.58;;;28.90;56.40;;;;;;1925556;73;21052;-69
2021/11/29 10:24:32;;;;;;;18.42;12.40;;;28.80;56.40;;;;;;1914142;73;21073;-70
2021/11/29 10:27:02;;;;;;;21.02;12.93;;;28.80;56.50;;;;;;1893448;74;21065;-70
2021/11/29 10:29:33;;;;;;;21.05;13.50;;;28.80;56.70;;;;;;1891767;74;21104;-69
2021/11/29 10:32:05;;;;;;;23.77;14.33;;;28.70;56.80;;;;;;1901310;74;21563;-71
2021/11/29 10:34:36;;;;;;;23.07;15.83;;;28.70;56.90;;;;;;1914682;75;21173;-71
2021/11/29 10:37:12;;;;;;;21.23;13.32;;;28.70;57.20;;;;;;1897511;75;21655;-71
2021/11/29 10:39:46;;;;;;;16.70;11.57;;;28.60;57.30;;;;;;1895185;74;21138;-71
2021/11/29 10:42:17;;;;;;;21.33;11.75;;;28.50;57.50;;;;;;1888815;74;21132;-71
2021/11/29 10:44:53;;;;;;;16.95;12.03;;;28.50;57.50;;;;;;1897086;74;21620;-71
2021/11/29 10:47:23;;;;;;;18.35;11.08;;;28.50;57.70;;;;;;1900346;74;21584;-71
2021/11/29 10:49:56;;;;;;;18.32;11.28;;;28.40;57.70;;;;;;1897216;74;21562;-71
2021/11/29 10:52:31;;;;;;;18.40;11.22;;;28.40;57.70;;;;;;1890311;75;21217;-70
2021/11/29 10:55:03;;;;;;;20.85;11.78;;;28.40;57.80;;;;;;1899233;74;21205;-71
2021/11/29 10:57:36;;;;;;;21.23;12.30;;;28.30;57.90;;;;;;1896536;74;21623;-71
2021/11/29 11:00:13;;;;;;;16.67;11.30;;;28.30;58.00;;;;;;1887699;74;21215;-71
2021/11/29 11:02:40;;;;;;;18.55;11.48;;;28.20;58.00;;;;;;1901840;74;21188;-72
2021/11/29 11:05:13;;;;;;;19.15;12.23;;;28.20;58.20;;;;;;1896285;74;21096;-71
2021/11/29 11:07:45;;;;;;;19.80;12.90;;;28.20;58.20;;;;;;1903656;74;21642;-71
2021/11/29 11:10:16;;;;;;;16.87;11.83;;;28.20;58.40;;;;;;1896778;74;21708;-83
2021/11/29 11:12:48;;;;;;;21.77;13.48;;;28.10;58.40;;;;;;1897948;74;21651;-83
2021/11/29 11:15:21;;;;;;;21.42;12.28;;;28.10;58.50;;;;;;1900653;74;21696;-79
2021/11/29 11:17:56;;;;;;;17.20;11.97;;;28.10;58.60;;;;;;1899276;74;21466;-79
2021/11/29 11:20:27;;;;;;;19.60;11.83;;;28.00;58.70;;;;;;1893895;74;21115;-78
2021/11/29 11:22:58;;;;;;;17.95;11.97;;;28.00;58.70;;;;;;1901258;75;21095;-82
2021/11/29 11:25:31;;;;;;;19.27;11.88;;;28.00;58.90;;;;;;1901582;75;21686;-78
2021/11/29 11:28:05;;;;;;;21.42;12.95;;;28.00;59.00;;;;;;1884678;75;21142;-79
2021/11/29 11:30:38;;;;;;;21.42;11.60;;;28.00;59.20;;;;;;1890461;74;21169;-79
2021/11/29 11:33:11;;;;;;;18.05;12.15;;;28.00;59.30;;;;;;1888065;73;21151;-81
2021/11/29 11:35:44;;;;;;;17.35;12.05;;;27.90;59.40;;;;;;1889297;74;21194;-79
2021/11/29 11:38:18;;;;;;;21.00;13.32;;;27.90;59.50;;;;;;1893988;74;21614;-79
2021/11/29 11:40:51;;;;;;;20.43;12.63;;;27.90;59.70;;;;;;1878920;74;21052;-79
2021/11/29 11:43:23;;;;;;;22.37;14.28;;;27.80;59.70;;;;;;1889765;75;21217;-79
2021/11/29 11:45:54;;;;;;;27.20;14.85;;;27.90;60.00;;;;;;1897679;75;21657;-80
2021/11/29 11:48:26;;;;;;;24.37;14.75;;;27.80;60.10;;;;;;1888016;75;21139;-80
2021/11/29 11:50:57;;;;;;;26.07;15.53;;;27.80;60.20;;;;;;1899276;74;21209;-80
2021/11/29 11:53:28;;;;;;;24.32;15.70;;;27.70;60.30;;;;;;1890133;75;21114;-80
2021/11/29 11:56:00;;;;;;;25.20;16.80;;;27.70;60.40;;;;;;1889749;74;21172;-80
2021/11/29 11:58:34;;;;;;;26.93;18.55;;;27.70;60.80;;;;;;1870487;74;21641;-81
2021/11/29 12:01:08;;;;;;;24.75;17.50;;;27.70;61.30;;;;;;1884489;73;21161;-82
2021/11/29 12:03:46;;;;;;;25.80;19.20;;;27.60;61.30;;;;;;1905885;74;21193;-81
2021/11/29 12:06:18;;;;;;;29.27;20.48;;;27.70;61.80;;;;;;1885389;74;21177;-82
2021/11/29 12:08:50;;;;;;;34.60;20.30;;;27.60;62.10;;;;;;1897725;74;21644;-81
2021/11/29 12:11:23;;;;;;;32.20;21.35;;;27.60;62.50;;;;;;1895950;74;21593;-82
2021/11/29 12:13:56;;;;;;;32.95;19.67;;;27.50;62.50;;;;;;1883667;76;21122;-82
2021/11/29 12:16:30;;;;;;;30.40;19.12;;;27.50;62.90;;;;;;1886972;74;21116;-82
2021/11/29 12:19:01;;;;;;;26.65;19.67;;;27.50;64.00;;;;;;1899779;74;21048;-82
2021/11/29 12:21:34;;;;;;;28.80;19.40;;;27.40;63.20;;;;;;1891059;75;21297;-83
2021/11/29 12:24:12;;;;;;;28.65;19.82;;;27.40;63.40;;;;;;1902664;75;21107;-82
2021/11/29 12:26:47;;;;;;;27.77;18.40;;;27.40;63.30;;;;;;1912702;75;21162;-83
2021/11/29 12:29:22;;;;;;;29.25;18.60;;;27.30;63.80;;;;;;1901051;73;21144;-82
2021/11/29 12:31:55;;;;;;;26.68;19.25;;;27.30;63.90;;;;;;1890464;74;21140;-82
2021/11/29 12:34:29;;;;;;;26.60;18.98;;;27.30;64.00;;;;;;1915740;73;21547;-81
2021/11/29 12:36:59;;;;;;;30.72;19.23;;;27.30;64.30;;;;;;1928588;73;21141;-81
2021/11/29 12:39:33;;;;;;;30.48;18.30;;;27.30;64.60;;;;;;1929553;74;21589;-81
2021/11/29 12:42:03;;;;;;;30.65;19.50;;;27.20;64.60;;;;;;1957171;73;21603;-81
2021/11/29 12:44:37;;;;;;;27.13;18.57;;;27.20;64.80;;;;;;1926564;73;21591;-80
2021/11/29 12:47:10;;;;;;;28.92;19.65;;;27.20;65.10;;;;;;1888067;74;21139;-81
2021/11/29 12:49:40;;;;;;;32.65;19.82;;;27.10;65.20;;;;;;1925634;73;21601;-81
2021/11/29 12:52:14;;;;;;;26.62;18.65;;;27.10;65.30;;;;;;1949050;73;21193;-81
2021/11/29 12:54:46;;;;;;;30.15;19.92;;;27.10;65.40;;;;;;1893997;74;21123;-80
2021/11/29 12:57:18;;;;;;;31.97;20.82;;;27.10;65.50;;;;;;1937007;73;21713;-81